Terminal Aerodrome Forecast
Issued by NWS

Home | Current Version | Previous Version | Text Only | Print | Product List | Glossary On
Versions: 1 2 3 4 5 6 7 8 9 10 11 12 13 14
000
FTUS43 KIND 262323
TAFHUF
TAF
KHUF 262323Z 2700/2724 34006KT P6SM VCTS BKN050CB OVC060
     FM270100 16008KT P6SM VCTS SCT045CB BKN080
     FM270400 17010KT P6SM -SHRA VCTS SCT045CB OVC060 WS020/18045KT
     FM270600 19009KT P6SM SHRA SCT045 OVC050
     FM271000 19012G20KT P6SM SHRA OVC010
     FM271300 25012KT P6SM VCSH OVC008
     FM271500 26013KT P6SM VCSH OVC010
     FM272000 24012KT P6SM BKN035=

USA.gov is the U.S. government's official web portal to all federal, state and local government web resources and services.